Time;durP1;ratioP1;P1;durP2;ratioP2;P2;SDS_P1;SDS_P2;PMS_P1;PMS_P2;Temp;Humidity;BMP_temperature;BMP_pressure;BME280_temperature;BME280_humidity;BME280_pressure;Samples;Min_cycle;Max_cycle;Signal;HPM_P1;HPM_P2
2023/12/12 00:00:01;;;;;;;15.50;14.85;;;;;;;;;;5113295;27;20047;-84
2023/12/12 00:02:28;;;;;;;14.48;13.57;;;;;;;;;;5116425;28;20054;-84
2023/12/12 00:04:54;;;;;;;14.82;13.98;;;;;;;;;;5109808;28;20435;-84
2023/12/12 00:07:22;;;;;;;17.42;16.48;;;;;;;;;;5095739;28;20055;-84
2023/12/12 00:09:49;;;;;;;18.55;17.52;;;;;;;;;;5095523;28;20066;-85
2023/12/12 00:12:15;;;;;;;17.55;16.60;;;;;;;;;;5095671;28;20105;-85
2023/12/12 00:14:42;;;;;;;18.48;17.58;;;;;;;;;;5103132;28;20446;-85
2023/12/12 00:17:08;;;;;;;17.90;17.13;;;;;;;;;;5114580;28;20123;-85
2023/12/12 00:19:35;;;;;;;26.25;25.10;;;;;;;;;;5115713;28;20484;-86
2023/12/12 00:22:01;;;;;;;16.98;15.90;;;;;;;;;;5115845;28;20152;-87
2023/12/12 00:24:29;;;;;;;15.48;14.77;;;;;;;;;;5114166;28;20431;-85
2023/12/12 00:26:56;;;;;;;18.23;17.13;;;;;;;;;;5099478;28;20489;-86
2023/12/12 00:29:22;;;;;;;28.15;26.85;;;;;;;;;;5095827;28;20047;-87
2023/12/12 00:31:49;;;;;;;14.52;13.73;;;;;;;;;;5095109;28;20055;-86
2023/12/12 00:34:15;;;;;;;23.95;22.83;;;;;;;;;;5094629;28;20105;-86
2023/12/12 00:36:42;;;;;;;19.83;18.88;;;;;;;;;;5102073;28;20082;-84
2023/12/12 00:39:08;;;;;;;21.85;20.90;;;;;;;;;;5094037;28;20492;-84
2023/12/12 00:41:36;;;;;;;22.52;21.42;;;;;;;;;;5098553;28;20135;-84
2023/12/12 00:44:03;;;;;;;16.95;16.08;;;;;;;;;;5114406;28;20055;-84
2023/12/12 00:46:29;;;;;;;22.92;22.05;;;;;;;;;;5107502;28;20059;-83
2023/12/12 00:48:56;;;;;;;22.83;21.73;;;;;;;;;;5093265;28;20558;-84
2023/12/12 00:51:22;;;;;;;18.15;17.33;;;;;;;;;;5094096;28;20048;-84
2023/12/12 00:53:49;;;;;;;18.25;17.17;;;;;;;;;;5093708;28;20500;-86
2023/12/12 00:56:16;;;;;;;21.38;20.08;;;;;;;;;;5101520;28;20047;-84
2023/12/12 00:58:44;;;;;;;21.35;20.10;;;;;;;;;;5097387;27;20556;-83
2023/12/12 01:01:11;;;;;;;20.33;19.35;;;;;;;;;;5114046;28;20447;-82
2023/12/12 01:03:38;;;;;;;20.48;19.58;;;;;;;;;;5114355;28;20052;-83
2023/12/12 01:06:04;;;;;;;20.10;18.90;;;;;;;;;;5113442;28;20059;-83
2023/12/12 01:08:31;;;;;;;18.08;17.17;;;;;;;;;;5097239;28;20109;-83
2023/12/12 01:10:57;;;;;;;19.55;18.35;;;;;;;;;;5093501;28;20048;-82
2023/12/12 01:13:24;;;;;;;21.70;20.35;;;;;;;;;;5093478;28;20051;-84
2023/12/12 01:15:52;;;;;;;11.13;10.13;;;;;;;;;;5095162;28;21499;-83
2023/12/12 01:18:18;;;;;;;17.13;16.33;;;;;;;;;;5101690;28;20549;-83
2023/12/12 01:20:45;;;;;;;17.33;16.17;;;;;;;;;;5093580;28;20048;-83
2023/12/12 01:23:11;;;;;;;19.30;17.98;;;;;;;;;;5092806;28;20048;-82
2023/12/12 01:25:38;;;;;;;17.15;15.95;;;;;;;;;;5112216;28;20097;-84
2023/12/12 01:28:04;;;;;;;14.68;13.50;;;;;;;;;;5106615;28;20554;-85
2023/12/12 01:30:31;;;;;;;19.50;18.70;;;;;;;;;;5094056;28;20052;-85
2023/12/12 01:32:59;;;;;;;19.30;18.13;;;;;;;;;;5094358;28;20117;-86
2023/12/12 01:35:25;;;;;;;19.08;18.13;;;;;;;;;;5094243;28;20051;-85
2023/12/12 01:37:52;;;;;;;19.02;17.95;;;;;;;;;;5101263;28;20492;-85
2023/12/12 01:40:18;;;;;;;15.30;14.43;;;;;;;;;;5093665;28;20044;-85
2023/12/12 01:42:45;;;;;;;19.65;18.50;;;;;;;;;;5112722;28;20052;-86
2023/12/12 01:45:11;;;;;;;14.02;12.85;;;;;;;;;;5113632;28;20459;-85
2023/12/12 01:47:38;;;;;;;14.38;13.70;;;;;;;;;;5112872;28;20052;-87
2023/12/12 01:50:07;;;;;;;18.40;17.20;;;;;;;;;;5097035;28;20109;-86
2023/12/12 01:52:34;;;;;;;20.60;19.40;;;;;;;;;;5093342;28;20496;-85
2023/12/12 01:55:00;;;;;;;20.08;18.88;;;;;;;;;;5093165;28;20135;-85
2023/12/12 01:57:27;;;;;;;17.80;16.63;;;;;;;;;;5105632;28;20044;-84
2023/12/12 01:59:54;;;;;;;22.10;20.77;;;;;;;;;;5100197;28;20105;-85
2023/12/12 02:02:21;;;;;;;22.85;21.75;;;;;;;;;;5092448;28;20048;-85
2023/12/12 02:05:14;;;;;;;17.23;16.17;;;;;;;;;;5093192;28;20048;-84
2023/12/12 02:07:44;;;;;;;16.23;15.52;;;;;;;;;;5093242;28;20048;-85
2023/12/12 02:10:10;;;;;;;19.25;17.63;;;;;;;;;;5100740;28;20105;-84
2023/12/12 02:12:37;;;;;;;17.83;16.75;;;;;;;;;;5100643;28;20130;-85
2023/12/12 02:15:03;;;;;;;18.90;17.60;;;;;;;;;;5113171;28;20052;-84
2023/12/12 02:17:30;;;;;;;17.42;16.48;;;;;;;;;;5113510;28;20101;-84
2023/12/12 02:19:58;;;;;;;22.55;20.60;;;;;;;;;;5106322;28;20109;-85
2023/12/12 02:22:25;;;;;;;22.92;21.45;;;;;;;;;;5092765;28;20148;-85
2023/12/12 02:24:52;;;;;;;20.98;20.02;;;;;;;;;;5092767;28;20140;-84
2023/12/12 02:27:19;;;;;;;16.67;15.88;;;;;;;;;;5103977;28;20051;-85
2023/12/12 02:29:46;;;;;;;23.52;22.40;;;;;;;;;;5110890;28;20052;-84
2023/12/12 02:32:12;;;;;;;19.63;18.52;;;;;;;;;;5092293;28;20052;-85
2023/12/12 02:34:39;;;;;;;25.95;24.25;;;;;;;;;;5092594;28;20059;-85
2023/12/12 02:37:05;;;;;;;21.27;20.17;;;;;;;;;;5092297;28;20059;-85
2023/12/12 02:39:33;;;;;;;18.98;17.88;;;;;;;;;;5095963;28;20051;-84
2023/12/12 02:41:59;;;;;;;16.48;15.73;;;;;;;;;;5112268;28;20458;-83
2023/12/12 02:44:26;;;;;;;19.70;18.73;;;;;;;;;;5111279;28;20048;-84
2023/12/12 02:46:52;;;;;;;16.30;15.35;;;;;;;;;;5112298;28;20545;-84
2023/12/12 02:49:19;;;;;;;20.67;19.63;;;;;;;;;;5112407;28;20056;-84
2023/12/12 02:51:45;;;;;;;18.77;17.55;;;;;;;;;;5099686;28;20489;-83
2023/12/12 02:54:12;;;;;;;20.55;19.48;;;;;;;;;;5091945;28;20052;-84
2023/12/12 02:56:40;;;;;;;21.95;20.52;;;;;;;;;;5092425;28;20044;-84
2023/12/12 02:59:06;;;;;;;22.77;21.60;;;;;;;;;;5100624;28;20047;-83
2023/12/12 03:01:33;;;;;;;22.55;21.10;;;;;;;;;;5105034;28;20052;-83
2023/12/12 03:03:59;;;;;;;14.07;13.00;;;;;;;;;;5091691;28;20419;-83
2023/12/12 03:06:26;;;;;;;21.67;20.40;;;;;;;;;;5092017;28;20052;-83
2023/12/12 03:08:52;;;;;;;18.38;17.42;;;;;;;;;;5092104;28;20652;-83
2023/12/12 03:11:19;;;;;;;19.38;18.33;;;;;;;;;;5099618;28;20055;-82
2023/12/12 03:13:46;;;;;;;18.00;17.10;;;;;;;;;;5097760;28;20039;-82
2023/12/12 03:16:13;;;;;;;15.30;14.38;;;;;;;;;;5116296;28;20047;-83
2023/12/12 03:18:39;;;;;;;22.58;21.42;;;;;;;;;;5116307;28;20074;-82
2023/12/12 03:21:06;;;;;;;24.08;22.77;;;;;;;;;;5115262;28;20539;-82
2023/12/12 03:23:33;;;;;;;23.75;22.45;;;;;;;;;;5098761;28;20070;-83
2023/12/12 03:26:07;;;;;;;17.65;16.65;;;;;;;;;;5095647;28;20459;-82
2023/12/12 03:28:34;;;;;;;18.92;17.95;;;;;;;;;;5108329;28;20055;-83
2023/12/12 03:31:02;;;;;;;18.95;17.58;;;;;;;;;;5115234;28;20446;-81
2023/12/12 03:33:28;;;;;;;18.05;17.25;;;;;;;;;;5102262;28;20048;-82
2023/12/12 03:35:55;;;;;;;17.52;16.50;;;;;;;;;;5095627;28;20044;-85
2023/12/12 03:38:21;;;;;;;22.70;21.50;;;;;;;;;;5095726;28;20105;-84
2023/12/12 03:40:48;;;;;;;15.82;14.82;;;;;;;;;;5095431;28;20526;-84
2023/12/12 03:43:14;;;;;;;21.85;20.73;;;;;;;;;;5105074;28;20047;-83
2023/12/12 03:45:41;;;;;;;10.63;9.00;;;;;;;;;;5116784;28;20389;-82
2023/12/12 03:48:09;;;;;;;15.80;15.00;;;;;;;;;;5116903;28;20044;-83
2023/12/12 03:50:35;;;;;;;21.02;19.90;;;;;;;;;;5121184;28;20100;-84
2023/12/12 03:53:02;;;;;;;22.45;21.15;;;;;;;;;;5113415;28;20056;-85
2023/12/12 03:55:28;;;;;;;19.73;18.17;;;;;;;;;;5095375;28;20051;-86
2023/12/12 03:57:55;;;;;;;13.52;11.75;;;;;;;;;;5095490;28;20410;-85
2023/12/12 04:00:21;;;;;;;22.40;21.20;;;;;;;;;;5095974;27;20109;-84
2023/12/12 04:02:48;;;;;;;23.63;22.27;;;;;;;;;;5115664;28;20096;-85
2023/12/12 04:05:15;;;;;;;21.48;19.98;;;;;;;;;;5096933;28;20106;-86
2023/12/12 04:07:42;;;;;;;19.02;17.90;;;;;;;;;;5095200;28;20496;-86
2023/12/12 04:10:09;;;;;;;20.30;18.92;;;;;;;;;;5095584;28;20078;-84
2023/12/12 04:12:35;;;;;;;18.70;17.48;;;;;;;;;;5096089;28;20044;-83
2023/12/12 04:15:02;;;;;;;18.70;17.67;;;;;;;;;;5101604;28;20044;-85
2023/12/12 04:17:29;;;;;;;13.88;13.25;;;;;;;;;;5097347;28;21237;-86
2023/12/12 04:19:56;;;;;;;9.43;8.63;;;;;;;;;;5115586;28;20446;-84
2023/12/12 04:22:24;;;;;;;9.68;8.98;;;;;;;;;;5115677;28;20446;-84
2023/12/12 04:24:50;;;;;;;20.15;18.95;;;;;;;;;;5104762;28;20051;-85
2023/12/12 04:27:17;;;;;;;20.88;19.60;;;;;;;;;;5094436;28;20047;-84
2023/12/12 04:29:43;;;;;;;20.88;19.65;;;;;;;;;;5108231;28;20051;-83
2023/12/12 04:32:10;;;;;;;17.27;16.33;;;;;;;;;;5114748;28;20055;-89
2023/12/12 04:34:36;;;;;;;21.85;20.70;;;;;;;;;;5110747;28;20093;-84
2023/12/12 04:37:03;;;;;;;15.18;14.15;;;;;;;;;;5094946;28;20180;-88
2023/12/12 04:39:30;;;;;;;20.73;19.10;;;;;;;;;;5095027;28;20105;-81
2023/12/12 04:41:57;;;;;;;18.63;17.70;;;;;;;;;;5093849;28;20048;-81
2023/12/12 04:44:24;;;;;;;19.42;18.30;;;;;;;;;;5100170;28;20048;-84
2023/12/12 04:46:50;;;;;;;22.33;20.92;;;;;;;;;;5108188;28;20104;-82
2023/12/12 04:49:19;;;;;;;17.55;16.65;;;;;;;;;;5106472;28;20058;-81
2023/12/12 04:51:45;;;;;;;20.33;19.25;;;;;;;;;;5104144;28;20044;-87
2023/12/12 04:54:12;;;;;;;26.00;24.48;;;;;;;;;;5105276;28;20043;-85
2023/12/12 04:56:40;;;;;;;17.15;16.27;;;;;;;;;;5110446;28;20101;-82
2023/12/12 04:59:06;;;;;;;19.58;18.23;;;;;;;;;;5103206;28;20036;-82
2023/12/12 05:01:33;;;;;;;19.73;18.40;;;;;;;;;;5102655;28;20101;-84
2023/12/12 05:03:59;;;;;;;23.13;21.73;;;;;;;;;;5104839;28;20048;-82
2023/12/12 05:06:26;;;;;;;17.75;16.65;;;;;;;;;;5110327;28;20484;-83
2023/12/12 05:08:52;;;;;;;27.55;26.08;;;;;;;;;;5114131;28;20056;-83
2023/12/12 05:11:19;;;;;;;22.63;21.23;;;;;;;;;;5105213;28;20097;-84
2023/12/12 05:13:47;;;;;;;15.80;14.90;;;;;;;;;;5109839;27;20553;-83
2023/12/12 05:16:14;;;;;;;21.00;18.25;;;;;;;;;;5099527;28;20552;-83
2023/12/12 05:18:40;;;;;;;17.35;16.42;;;;;;;;;;5113074;28;20050;-83
2023/12/12 05:21:07;;;;;;;17.65;16.52;;;;;;;;;;5106879;28;20558;-83
2023/12/12 05:23:33;;;;;;;22.33;20.45;;;;;;;;;;5093667;28;20121;-84
2023/12/12 05:26:00;;;;;;;21.02;19.83;;;;;;;;;;5100774;28;20052;-83
2023/12/12 05:28:27;;;;;;;21.30;20.08;;;;;;;;;;5093593;28;20079;-84
2023/12/12 05:30:55;;;;;;;23.42;21.98;;;;;;;;;;5101564;28;20093;-82
2023/12/12 05:33:23;;;;;;;21.08;20.05;;;;;;;;;;5113902;28;20108;-83
2023/12/12 05:35:49;;;;;;;21.48;19.98;;;;;;;;;;5110048;28;21221;-83
2023/12/12 05:38:16;;;;;;;15.32;14.15;;;;;;;;;;5105077;28;20428;-82
2023/12/12 05:40:42;;;;;;;20.30;18.83;;;;;;;;;;5109692;28;20127;-83
2023/12/12 05:43:09;;;;;;;19.63;18.60;;;;;;;;;;5105831;28;20047;-83
2023/12/12 05:45:36;;;;;;;20.65;19.27;;;;;;;;;;5113283;28;20126;-82
2023/12/12 05:48:04;;;;;;;22.15;20.70;;;;;;;;;;5111620;28;20100;-83
2023/12/12 05:50:31;;;;;;;27.88;25.52;;;;;;;;;;5113567;28;20101;-85
2023/12/12 05:52:57;;;;;;;24.40;22.95;;;;;;;;;;5113338;28;20043;-81
2023/12/12 05:55:24;;;;;;;18.85;17.75;;;;;;;;;;5104967;28;20047;-81
2023/12/12 05:57:50;;;;;;;13.63;12.45;;;;;;;;;;5105996;28;20442;-80
2023/12/12 06:00:17;;;;;;;17.83;16.70;;;;;;;;;;5105394;28;20188;-84
2023/12/12 06:02:43;;;;;;;23.48;21.98;;;;;;;;;;5113173;28;20047;-85
2023/12/12 06:05:12;;;;;;;21.05;20.10;;;;;;;;;;5113429;28;20044;-86
2023/12/12 06:07:38;;;;;;;21.98;20.52;;;;;;;;;;5112227;28;20095;-86
2023/12/12 06:10:06;;;;;;;27.55;25.92;;;;;;;;;;5104386;28;20055;-86
2023/12/12 06:12:32;;;;;;;23.42;21.33;;;;;;;;;;5113729;28;20135;-86
2023/12/12 06:14:59;;;;;;;12.77;11.65;;;;;;;;;;5105435;28;20450;-86
2023/12/12 06:17:26;;;;;;;21.50;20.13;;;;;;;;;;5103818;28;20504;-84
2023/12/12 06:19:52;;;;;;;24.83;23.30;;;;;;;;;;5104585;28;20163;-85
2023/12/12 06:22:21;;;;;;;25.35;23.92;;;;;;;;;;5102134;28;20064;-84
2023/12/12 06:24:47;;;;;;;20.55;19.23;;;;;;;;;;5111335;28;20097;-83
2023/12/12 06:27:14;;;;;;;22.48;21.00;;;;;;;;;;5096394;28;20047;-85
2023/12/12 06:29:40;;;;;;;22.83;21.45;;;;;;;;;;5108778;28;20036;-84
2023/12/12 06:32:08;;;;;;;21.33;20.15;;;;;;;;;;5109288;28;20059;-82
2023/12/12 06:34:34;;;;;;;24.67;23.40;;;;;;;;;;5108111;28;20039;-91
2023/12/12 06:37:01;;;;;;;21.75;20.60;;;;;;;;;;5095449;28;20562;-85
2023/12/12 06:39:28;;;;;;;27.42;26.02;;;;;;;;;;5111555;28;20085;-80
2023/12/12 06:41:55;;;;;;;13.02;12.13;;;;;;;;;;5109112;28;20457;-80
2023/12/12 06:44:22;;;;;;;25.02;23.08;;;;;;;;;;5099622;28;20101;-80
2023/12/12 06:46:48;;;;;;;21.70;20.20;;;;;;;;;;5093358;28;20048;-79
2023/12/12 06:49:15;;;;;;;14.18;12.63;;;;;;;;;;5111201;28;20391;-81
2023/12/12 06:51:41;;;;;;;24.48;22.83;;;;;;;;;;5101753;28;20044;-79
2023/12/12 06:54:08;;;;;;;25.45;23.85;;;;;;;;;;5103232;28;20109;-80
2023/12/12 06:56:36;;;;;;;29.00;26.85;;;;;;;;;;5112804;28;20044;-81
2023/12/12 06:59:05;;;;;;;31.50;28.83;;;;;;;;;;5111312;28;20485;-80
2023/12/12 07:01:32;;;;;;;28.67;26.63;;;;;;;;;;5112685;28;20442;-80
2023/12/12 07:03:58;;;;;;;30.92;28.30;;;;;;;;;;5112646;28;20044;-80
2023/12/12 07:06:25;;;;;;;30.65;28.15;;;;;;;;;;5112684;28;20054;-80
2023/12/12 07:08:51;;;;;;;25.02;23.00;;;;;;;;;;5101360;28;20051;-79
2023/12/12 07:11:18;;;;;;;29.55;27.10;;;;;;;;;;5104419;28;20036;-80
2023/12/12 07:13:46;;;;;;;35.53;33.13;;;;;;;;;;5112410;28;20116;-81
2023/12/12 07:16:12;;;;;;;30.70;28.65;;;;;;;;;;5112540;28;20110;-80
2023/12/12 07:18:39;;;;;;;28.23;26.40;;;;;;;;;;5096262;28;20083;-80
2023/12/12 07:21:06;;;;;;;26.70;24.55;;;;;;;;;;5106945;28;20547;-79
2023/12/12 07:23:33;;;;;;;18.33;16.75;;;;;;;;;;5112021;28;20446;-84
2023/12/12 07:26:00;;;;;;;24.77;22.92;;;;;;;;;;5105030;28;20055;-79
2023/12/12 07:28:27;;;;;;;27.27;25.23;;;;;;;;;;5105575;28;20131;-80
2023/12/12 07:30:55;;;;;;;31.98;29.83;;;;;;;;;;5108096;28;20057;-79
2023/12/12 07:33:21;;;;;;;31.77;29.58;;;;;;;;;;5107264;28;20048;-81
2023/12/12 07:35:48;;;;;;;32.03;29.52;;;;;;;;;;5100610;28;20477;-81
2023/12/12 07:38:16;;;;;;;30.13;28.08;;;;;;;;;;5099550;28;20488;-80
2023/12/12 07:40:43;;;;;;;34.33;32.08;;;;;;;;;;5102609;28;20036;-81
2023/12/12 07:43:10;;;;;;;33.20;30.77;;;;;;;;;;5109088;28;20051;-81
2023/12/12 07:45:36;;;;;;;31.35;29.40;;;;;;;;;;5111466;28;20044;-81
2023/12/12 07:48:04;;;;;;;27.88;25.73;;;;;;;;;;5111506;28;20496;-80
2023/12/12 07:50:31;;;;;;;31.80;29.77;;;;;;;;;;5110957;28;20549;-79
2023/12/12 07:52:58;;;;;;;31.77;29.38;;;;;;;;;;5112194;28;20040;-80
2023/12/12 07:55:25;;;;;;;31.40;29.05;;;;;;;;;;5111940;28;20043;-80
2023/12/12 07:57:51;;;;;;;28.30;26.42;;;;;;;;;;5101938;28;20097;-81
2023/12/12 08:00:19;;;;;;;30.33;28.40;;;;;;;;;;5108367;28;20043;-81
2023/12/12 08:02:45;;;;;;;34.85;32.63;;;;;;;;;;5111817;28;20112;-81
2023/12/12 08:05:13;;;;;;;26.33;24.67;;;;;;;;;;5115196;28;20039;-81
2023/12/12 08:07:40;;;;;;;31.92;29.95;;;;;;;;;;5115081;28;20093;-82
2023/12/12 08:10:07;;;;;;;26.02;24.60;;;;;;;;;;5104626;28;20089;-80
2023/12/12 08:12:33;;;;;;;26.25;24.83;;;;;;;;;;5110486;28;20039;-84
2023/12/12 08:15:00;;;;;;;26.40;24.55;;;;;;;;;;5105160;28;20048;-81
2023/12/12 08:17:26;;;;;;;31.95;30.15;;;;;;;;;;5111613;28;20101;-81
2023/12/12 08:19:53;;;;;;;27.25;25.40;;;;;;;;;;5115024;28;20098;-81
2023/12/12 08:22:21;;;;;;;24.75;23.35;;;;;;;;;;5114241;28;20067;-81
2023/12/12 08:24:50;;;;;;;29.48;28.13;;;;;;;;;;5112906;28;20104;-81
2023/12/12 08:27:17;;;;;;;32.15;30.33;;;;;;;;;;5110385;28;20040;-79
2023/12/12 08:29:45;;;;;;;34.00;32.20;;;;;;;;;;5112086;28;20100;-80
2023/12/12 08:32:11;;;;;;;28.70;27.15;;;;;;;;;;5113597;28;20044;-82
2023/12/12 08:34:38;;;;;;;33.55;31.63;;;;;;;;;;5114205;28;20052;-82
2023/12/12 08:37:05;;;;;;;34.42;32.67;;;;;;;;;;5114276;28;20047;-82
2023/12/12 08:39:33;;;;;;;39.70;37.47;;;;;;;;;;5114542;28;20554;-83
2023/12/12 08:41:59;;;;;;;21.77;20.42;;;;;;;;;;5100681;28;20385;-83
2023/12/12 08:44:26;;;;;;;40.40;38.60;;;;;;;;;;5111217;28;20180;-82
2023/12/12 08:46:52;;;;;;;33.70;32.20;;;;;;;;;;5114762;28;20088;-78
2023/12/12 08:49:19;;;;;;;21.42;20.10;;;;;;;;;;5115139;28;20434;-78
2023/12/12 08:51:45;;;;;;;38.13;35.92;;;;;;;;;;5113865;28;20047;-81
2023/12/12 08:54:12;;;;;;;72.47;69.68;;;;;;;;;;5107648;28;20044;-80
2023/12/12 08:56:42;;;;;;;44.15;42.15;;;;;;;;;;5097622;28;20389;-82
2023/12/12 08:59:09;;;;;;;65.00;62.03;;;;;;;;;;5110056;28;20044;-81
2023/12/12 09:01:35;;;;;;;79.57;76.45;;;;;;;;;;5102247;28;20044;-81
2023/12/12 09:04:02;;;;;;;66.47;63.67;;;;;;;;;;5103693;28;20055;-79
2023/12/12 09:06:29;;;;;;;65.97;63.00;;;;;;;;;;5109551;28;20186;-79
2023/12/12 09:08:55;;;;;;;59.17;56.70;;;;;;;;;;5112215;28;20496;-79
2023/12/12 09:11:22;;;;;;;66.45;63.55;;;;;;;;;;5106170;28;20044;-81
2023/12/12 09:13:49;;;;;;;76.43;73.07;;;;;;;;;;5112789;28;20039;-82
2023/12/12 09:16:16;;;;;;;70.60;67.53;;;;;;;;;;5112138;28;20052;-80
2023/12/12 09:18:42;;;;;;;43.50;41.45;;;;;;;;;;5113202;28;20617;-83
2023/12/12 09:21:09;;;;;;;45.83;43.70;;;;;;;;;;5101696;28;20055;-83
2023/12/12 09:23:39;;;;;;;51.67;49.42;;;;;;;;;;5113317;28;20487;-82
2023/12/12 09:26:06;;;;;;;46.35;44.00;;;;;;;;;;5112421;28;20108;-81
2023/12/12 09:28:32;;;;;;;55.65;52.95;;;;;;;;;;5113156;28;20047;-82
2023/12/12 09:31:00;;;;;;;53.13;50.53;;;;;;;;;;5106133;28;20056;-81
2023/12/12 09:33:26;;;;;;;58.63;55.85;;;;;;;;;;5102859;28;20484;-82
2023/12/12 09:35:53;;;;;;;60.33;57.25;;;;;;;;;;5105079;28;20051;-80
2023/12/12 09:38:19;;;;;;;64.88;61.97;;;;;;;;;;5113288;28;20073;-80
2023/12/12 09:40:46;;;;;;;60.45;57.83;;;;;;;;;;5112814;28;20051;-83
2023/12/12 09:43:13;;;;;;;67.32;64.32;;;;;;;;;;5096645;28;20039;-82
2023/12/12 09:45:42;;;;;;;68.05;65.13;;;;;;;;;;5112005;28;20047;-81
2023/12/12 09:48:10;;;;;;;72.95;70.05;;;;;;;;;;5104538;28;20047;-82
2023/12/12 09:50:37;;;;;;;80.78;77.20;;;;;;;;;;5112725;28;20039;-81
2023/12/12 09:53:04;;;;;;;80.43;77.20;;;;;;;;;;5112869;28;20048;-79
2023/12/12 09:55:31;;;;;;;78.65;74.53;;;;;;;;;;5107677;28;20519;-79
2023/12/12 09:57:57;;;;;;;68.07;64.90;;;;;;;;;;5112782;28;20047;-78
2023/12/12 10:00:25;;;;;;;74.80;71.50;;;;;;;;;;5111102;28;20104;-79
2023/12/12 10:02:55;;;;;;;83.50;80.00;;;;;;;;;;5111871;28;20051;-79
2023/12/12 10:05:23;;;;;;;76.35;73.15;;;;;;;;;;5112582;28;20046;-78
2023/12/12 10:07:50;;;;;;;85.20;81.95;;;;;;;;;;5110650;28;20054;-79
2023/12/12 10:10:16;;;;;;;45.83;43.67;;;;;;;;;;5111817;28;20413;-79
2023/12/12 10:12:43;;;;;;;76.50;73.53;;;;;;;;;;5112172;28;20051;-79
2023/12/12 10:15:23;;;;;;;74.70;71.88;;;;;;;;;;5109019;28;20112;-79
2023/12/12 10:17:49;;;;;;;77.47;74.55;;;;;;;;;;5106247;28;20132;-79
2023/12/12 10:20:25;;;;;;;46.05;43.95;;;;;;;;;;5112215;28;20458;-79
2023/12/12 10:22:53;;;;;;;83.55;80.43;;;;;;;;;;5110170;28;20083;-79
2023/12/12 10:25:22;;;;;;;85.55;82.40;;;;;;;;;;5097199;28;20044;-79
2023/12/12 10:27:52;;;;;;;88.72;85.55;;;;;;;;;;5111643;28;20130;-80
2023/12/12 10:30:19;;;;;;;79.43;76.43;;;;;;;;;;5112141;28;20047;-79
2023/12/12 10:32:46;;;;;;;86.07;82.85;;;;;;;;;;5111834;28;20054;-78
2023/12/12 10:35:12;;;;;;;72.28;69.40;;;;;;;;;;5103097;28;20036;-79
2023/12/12 10:37:39;;;;;;;90.00;86.63;;;;;;;;;;5111469;28;20120;-79
2023/12/12 10:40:13;;;;;;;86.88;83.50;;;;;;;;;;5104817;28;20051;-79
2023/12/12 10:42:40;;;;;;;93.07;89.53;;;;;;;;;;5102798;28;20496;-79
2023/12/12 10:45:08;;;;;;;77.28;74.35;;;;;;;;;;5111509;28;20134;-79
2023/12/12 10:47:35;;;;;;;88.75;85.22;;;;;;;;;;5106920;28;20052;-79
2023/12/12 10:50:03;;;;;;;82.10;78.65;;;;;;;;;;5106396;28;20043;-79
2023/12/12 10:52:30;;;;;;;75.32;72.22;;;;;;;;;;5105837;28;20101;-79
2023/12/12 10:54:57;;;;;;;75.85;72.55;;;;;;;;;;5111573;28;20076;-78
2023/12/12 10:57:25;;;;;;;77.93;74.85;;;;;;;;;;5108837;28;20621;-79
2023/12/12 10:59:52;;;;;;;85.32;81.60;;;;;;;;;;5117575;28;20138;-79
2023/12/12 11:02:19;;;;;;;73.43;70.53;;;;;;;;;;5111112;28;20083;-79
2023/12/12 11:04:46;;;;;;;82.32;79.28;;;;;;;;;;5111355;28;20083;-78
2023/12/12 11:07:12;;;;;;;85.78;82.30;;;;;;;;;;5095254;28;20036;-79
2023/12/12 11:09:39;;;;;;;73.20;69.72;;;;;;;;;;5105212;28;20492;-79
2023/12/12 11:12:06;;;;;;;77.93;74.65;;;;;;;;;;5102825;28;20041;-79
2023/12/12 11:14:34;;;;;;;71.45;68.47;;;;;;;;;;5111869;28;20043;-79
2023/12/12 11:17:01;;;;;;;76.35;73.00;;;;;;;;;;5094899;28;20101;-79
2023/12/12 11:19:27;;;;;;;81.63;78.40;;;;;;;;;;5110837;28;20039;-79
2023/12/12 11:21:54;;;;;;;79.80;76.82;;;;;;;;;;5110538;28;20500;-79
2023/12/12 11:24:20;;;;;;;75.18;71.60;;;;;;;;;;5111449;28;20105;-79
2023/12/12 11:26:47;;;;;;;88.53;85.05;;;;;;;;;;5102781;28;20079;-79
2023/12/12 11:29:15;;;;;;;72.82;69.88;;;;;;;;;;5110972;28;20048;-79
2023/12/12 11:34:39;;;;;;;147.97;142.53;;;;;;;;;;5071464;27;20417;-80
2023/12/12 11:37:07;;;;;;;78.45;75.13;;;;;;;;;;5068797;28;20576;-80
2023/12/12 11:39:37;;;;;;;72.60;69.43;;;;;;;;;;5068107;28;20076;-79
2023/12/12 11:42:05;;;;;;;56.05;53.53;;;;;;;;;;5063497;28;20112;-80
2023/12/12 11:44:42;;;;;;;54.00;51.40;;;;;;;;;;5068528;28;20102;-80
2023/12/12 11:47:13;;;;;;;59.40;56.63;;;;;;;;;;5068985;28;20075;-79
2023/12/12 11:49:41;;;;;;;46.63;44.55;;;;;;;;;;5067932;28;20049;-78
2023/12/12 11:52:08;;;;;;;64.43;61.72;;;;;;;;;;5065322;28;20053;-79
2023/12/12 11:54:34;;;;;;;62.63;60.13;;;;;;;;;;5068609;28;20076;-79
2023/12/12 11:57:01;;;;;;;65.50;62.70;;;;;;;;;;5068449;28;20403;-80
2023/12/12 11:59:28;;;;;;;60.55;58.00;;;;;;;;;;5068666;28;20063;-80
2023/12/12 12:01:55;;;;;;;65.20;62.10;;;;;;;;;;5067440;28;20490;-80
2023/12/12 12:04:22;;;;;;;67.78;65.07;;;;;;;;;;5068490;28;20075;-77
2023/12/12 12:06:52;;;;;;;76.15;73.07;;;;;;;;;;5068228;28;20792;-79
2023/12/12 12:09:19;;;;;;;88.72;85.32;;;;;;;;;;5068048;28;20045;-79
2023/12/12 12:11:47;;;;;;;67.55;65.03;;;;;;;;;;5067806;28;20118;-79
2023/12/12 12:14:15;;;;;;;69.72;67.13;;;;;;;;;;5068000;28;20052;-80
2023/12/12 12:16:42;;;;;;;62.85;60.35;;;;;;;;;;5058841;28;20060;-81
2023/12/12 12:19:28;;;;;;;81.03;77.72;;;;;;;;;;5062167;28;20052;-79
2023/12/12 12:21:56;;;;;;;72.93;69.70;;;;;;;;;;5059733;28;20512;-78
2023/12/12 12:24:22;;;;;;;79.65;76.47;;;;;;;;;;5056756;28;20109;-79
2023/12/12 12:26:49;;;;;;;77.47;74.20;;;;;;;;;;5066921;28;20939;-79
2023/12/12 12:29:16;;;;;;;108.25;101.70;;;;;;;;;;5067994;28;20044;-79
2023/12/12 12:31:42;;;;;;;73.45;70.60;;;;;;;;;;5066961;28;20481;-79
2023/12/12 12:34:16;;;;;;;88.65;84.97;;;;;;;;;;5067297;28;20060;-79
2023/12/12 12:36:43;;;;;;;79.53;76.03;;;;;;;;;;5067779;28;20110;-79
2023/12/12 12:39:12;;;;;;;86.60;83.28;;;;;;;;;;5067597;28;20498;-79
2023/12/12 12:41:39;;;;;;;85.47;81.93;;;;;;;;;;5066753;28;20781;-78
2023/12/12 12:44:06;;;;;;;83.22;79.95;;;;;;;;;;5055852;28;20498;-79
2023/12/12 12:46:32;;;;;;;82.43;79.13;;;;;;;;;;5055044;28;20060;-79
2023/12/12 12:48:59;;;;;;;91.55;87.57;;;;;;;;;;5054496;28;20059;-79
2023/12/12 12:51:25;;;;;;;77.80;74.63;;;;;;;;;;5054140;28;20098;-79
2023/12/12 12:53:53;;;;;;;82.60;79.15;;;;;;;;;;5047622;28;20099;-79
2023/12/12 12:56:21;;;;;;;83.85;80.43;;;;;;;;;;5054433;28;20084;-79
2023/12/12 12:58:47;;;;;;;95.13;91.40;;;;;;;;;;5054380;28;20277;-79
2023/12/12 13:01:14;;;;;;;83.40;80.00;;;;;;;;;;5054156;28;20045;-79
2023/12/12 13:03:41;;;;;;;97.65;93.95;;;;;;;;;;5050748;28;20387;-79
2023/12/12 13:06:08;;;;;;;110.63;106.55;;;;;;;;;;5053487;28;20049;-79
2023/12/12 13:08:34;;;;;;;87.93;84.53;;;;;;;;;;5053789;28;20045;-80
2023/12/12 13:11:00;;;;;;;94.00;90.32;;;;;;;;;;5053920;28;20055;-79
2023/12/12 13:13:28;;;;;;;107.20;102.82;;;;;;;;;;5053137;28;20464;-79
2023/12/12 13:15:55;;;;;;;85.55;82.10;;;;;;;;;;5049322;28;20543;-78
2023/12/12 13:18:21;;;;;;;108.03;103.93;;;;;;;;;;5055071;28;20070;-79
2023/12/12 13:20:48;;;;;;;96.25;92.45;;;;;;;;;;5053770;28;20648;-79
2023/12/12 13:23:14;;;;;;;100.75;96.68;;;;;;;;;;5053240;28;20057;-79
2023/12/12 13:25:41;;;;;;;104.70;100.68;;;;;;;;;;5053825;28;20489;-78
2023/12/12 13:28:08;;;;;;;91.18;87.68;;;;;;;;;;5053752;28;20096;-80
2023/12/12 13:30:36;;;;;;;99.18;95.47;;;;;;;;;;5053449;28;20802;-81
2023/12/12 13:33:05;;;;;;;98.15;94.22;;;;;;;;;;5053483;28;20048;-80
2023/12/12 13:35:32;;;;;;;82.22;78.93;;;;;;;;;;5043619;28;20051;-80
2023/12/12 13:37:58;;;;;;;95.18;91.30;;;;;;;;;;5037210;28;20049;-78
2023/12/12 13:40:25;;;;;;;90.05;86.63;;;;;;;;;;5053663;28;20075;-80
2023/12/12 13:42:52;;;;;;;105.35;101.38;;;;;;;;;;5053474;28;20413;-80
2023/12/12 13:45:18;;;;;;;79.13;76.05;;;;;;;;;;5048959;28;20061;-78
2023/12/12 13:47:46;;;;;;;104.55;100.70;;;;;;;;;;5051435;28;20492;-81
2023/12/12 13:50:13;;;;;;;88.55;85.10;;;;;;;;;;5052564;28;20044;-80
2023/12/12 13:52:39;;;;;;;88.15;84.57;;;;;;;;;;5053248;28;20056;-81
2023/12/12 13:55:07;;;;;;;99.20;95.35;;;;;;;;;;5052370;28;20049;-80
2023/12/12 13:57:33;;;;;;;81.50;77.93;;;;;;;;;;5048671;28;20048;-79
2023/12/12 14:00:00;;;;;;;104.57;100.63;;;;;;;;;;5053030;28;20394;-78
2023/12/12 14:02:27;;;;;;;91.38;87.97;;;;;;;;;;5053130;28;20049;-78
2023/12/12 14:04:55;;;;;;;88.97;85.22;;;;;;;;;;5052224;28;20053;-78
2023/12/12 14:07:22;;;;;;;86.05;82.30;;;;;;;;;;5052587;28;20098;-80
2023/12/12 14:09:48;;;;;;;97.60;93.72;;;;;;;;;;5052781;28;20110;-79
2023/12/12 14:12:15;;;;;;;88.50;84.95;;;;;;;;;;5052869;28;20090;-81
2023/12/12 14:14:42;;;;;;;98.38;94.45;;;;;;;;;;5052510;28;20076;-78
2023/12/12 14:17:09;;;;;;;95.28;91.28;;;;;;;;;;5041414;28;20060;-78